createdAt,value
2022-12-11T00:02:22.103Z,100994.91
2022-12-11T00:04:49.796Z,101001.72
2022-12-11T00:07:17.399Z,100998.09
2022-12-11T00:09:45.038Z,100995.63
2022-12-11T00:12:12.718Z,100986.53
2022-12-11T00:14:40.316Z,100990.94
2022-12-11T00:17:08.024Z,100946.00
2022-12-11T00:19:37.205Z,100997.53
2022-12-11T00:22:04.874Z,100999.78
2022-12-11T00:24:32.590Z,101009.69
2022-12-11T00:27:01.487Z,101007.47
2022-12-11T00:29:28.911Z,100999.81
2022-12-11T00:31:56.612Z,101000.75
2022-12-11T00:34:24.568Z,101006.81
2022-12-11T00:36:53.700Z,101006.66
2022-12-11T00:39:21.322Z,101001.06
2022-12-11T00:41:49.063Z,101002.72
2022-12-11T00:44:16.753Z,100996.22
2022-12-11T00:46:44.423Z,100995.03
2022-12-11T00:49:12.021Z,100993.06
2022-12-11T00:51:39.707Z,100995.78
2022-12-11T00:54:08.708Z,100998.31
2022-12-11T00:56:36.197Z,100989.81
2022-12-11T00:59:03.935Z,100992.75
2022-12-11T01:01:32.015Z,100996.81
2022-12-11T01:03:59.748Z,100981.56
2022-12-11T01:06:28.765Z,100962.84
2022-12-11T01:09:11.469Z,100991.38
2022-12-11T01:11:41.112Z,100983.88
2022-12-11T01:14:09.940Z,100971.84
2022-12-11T01:16:37.773Z,100972.22
2022-12-11T01:19:05.466Z,100968.00
2022-12-11T01:21:33.068Z,100969.25
2022-12-11T01:24:00.678Z,100976.88
2022-12-11T01:26:28.555Z,100975.22
2022-12-11T01:28:57.593Z,100969.75
2022-12-11T01:31:25.257Z,100975.81
2022-12-11T01:33:55.264Z,100968.03
2022-12-11T01:36:24.059Z,100966.03
2022-12-11T01:38:53.561Z,100971.31
2022-12-11T01:41:21.734Z,100972.34
2022-12-11T01:44:02.861Z,100972.47
2022-12-11T01:46:32.184Z,100968.81
2022-12-11T01:49:01.704Z,100973.59
2022-12-11T01:51:30.734Z,100974.78
2022-12-11T01:54:01.596Z,100981.31
2022-12-11T01:56:34.771Z,100978.50
2022-12-11T01:59:07.677Z,100977.81
2022-12-11T02:01:40.610Z,100969.66
2022-12-11T02:04:11.032Z,100963.56
2022-12-11T02:06:40.214Z,100959.16
2022-12-11T02:09:11.321Z,100960.28
2022-12-11T02:11:53.859Z,100960.28
2022-12-11T02:14:29.827Z,100958.06
2022-12-11T02:17:05.774Z,100954.97
2022-12-11T02:19:48.684Z,100961.94
2022-12-11T02:22:23.592Z,100955.06
2022-12-11T02:25:05.409Z,100958.22
2022-12-11T02:27:42.313Z,100951.69
2022-12-11T02:30:13.797Z,100943.97
2022-12-11T02:32:47.005Z,100937.88
2022-12-11T02:35:20.629Z,100938.59
2022-12-11T02:37:50.708Z,100937.66
2022-12-11T02:40:23.044Z,100937.78
2022-12-11T02:42:51.652Z,100943.63
2022-12-11T02:45:22.981Z,100938.38
2022-12-11T02:47:51.514Z,100952.41
2022-12-11T02:50:23.374Z,100943.97
2022-12-11T02:52:55.687Z,100939.97
2022-12-11T02:55:25.518Z,100938.94
2022-12-11T02:57:59.173Z,100929.00
2022-12-11T03:00:28.271Z,100940.47
2022-12-11T03:02:55.960Z,100942.44
2022-12-11T03:05:23.665Z,100938.22
2022-12-11T03:07:51.375Z,100938.69
2022-12-11T03:10:20.835Z,100935.53
2022-12-11T03:12:53.647Z,100935.28
2022-12-11T03:15:24.736Z,100933.91
2022-12-11T03:18:04.834Z,100936.97
2022-12-11T03:20:39.056Z,100936.47
2022-12-11T03:23:16.349Z,100933.06
2022-12-11T03:25:51.599Z,100933.53
2022-12-11T03:28:21.647Z,100931.53
2022-12-11T03:30:52.751Z,100927.09
2022-12-11T03:33:26.758Z,100931.53
2022-12-11T03:35:57.769Z,100923.38
2022-12-11T03:38:28.277Z,100928.84
2022-12-11T03:40:59.835Z,100925.34
2022-12-11T03:43:30.003Z,100936.69
2022-12-11T03:45:59.529Z,100934.25
2022-12-11T03:48:33.524Z,100932.25
2022-12-11T03:51:05.343Z,100930.88
2022-12-11T03:53:35.156Z,100923.16
2022-12-11T03:56:05.503Z,100922.34
2022-12-11T03:58:33.349Z,100925.72
2022-12-11T04:01:01.188Z,100925.56
2022-12-11T04:03:30.285Z,100919.06
2022-12-11T04:05:57.954Z,100919.88
2022-12-11T04:08:25.713Z,100878.31
2022-12-11T04:11:14.031Z,100920.91
2022-12-11T04:13:42.604Z,100917.63
2022-12-11T04:16:09.700Z,100916.13
2022-12-11T04:18:56.253Z,100918.13
2022-12-11T04:21:41.684Z,100919.88
2022-12-11T04:24:16.376Z,100919.63
2022-12-11T04:26:44.280Z,100923.50
2022-12-11T04:29:11.998Z,100923.59
2022-12-11T04:31:40.064Z,100921.97
2022-12-11T04:34:09.087Z,100916.16
2022-12-11T04:36:36.731Z,100905.50
2022-12-11T04:39:05.795Z,100916.72
2022-12-11T04:41:33.528Z,100914.72
2022-12-11T04:44:01.330Z,100920.69
2022-12-11T04:46:29.054Z,100916.72
2022-12-11T04:48:57.933Z,100915.47
2022-12-11T04:51:27.388Z,100910.19
2022-12-11T04:53:55.657Z,100908.66
2022-12-11T04:56:23.431Z,100902.22
2022-12-11T04:58:51.239Z,100912.50
2022-12-11T05:01:21.557Z,100909.00
2022-12-11T05:03:50.267Z,100905.63
2022-12-11T05:06:18.377Z,100906.22
2022-12-11T05:08:47.374Z,100914.38
2022-12-11T05:11:16.669Z,100899.75
2022-12-11T05:13:45.331Z,100918.13
2022-12-11T05:16:14.796Z,100915.06
2022-12-11T05:18:42.522Z,100914.47
2022-12-11T05:21:12.019Z,100921.53
2022-12-11T05:23:40.128Z,100918.22
2022-12-11T05:26:12.995Z,100921.03
2022-12-11T05:28:41.199Z,100911.91
2022-12-11T05:31:14.213Z,100905.81
2022-12-11T05:33:42.005Z,100911.66
2022-12-11T05:36:14.618Z,100908.75
2022-12-11T05:38:42.307Z,100896.47
2022-12-11T05:41:14.228Z,100906.31
2022-12-11T05:43:42.421Z,100907.97
2022-12-11T05:46:13.750Z,100903.97
2022-12-11T05:48:42.837Z,100898.25
2022-12-11T05:51:12.164Z,100883.97
2022-12-11T05:53:41.291Z,100899.03
2022-12-11T05:56:13.206Z,100888.06
2022-12-11T05:58:42.134Z,100896.84
2022-12-11T06:01:10.585Z,100891.69
2022-12-11T06:03:38.583Z,100893.06
2022-12-11T06:06:07.530Z,100891.81
2022-12-11T06:08:35.624Z,100889.94
2022-12-11T06:11:03.600Z,100889.69
2022-12-11T06:13:33.079Z,100886.53
2022-12-11T06:16:04.444Z,100893.66
2022-12-11T06:18:32.512Z,100894.81
2022-12-11T06:21:00.175Z,100889.47
2022-12-11T06:23:27.801Z,100888.41
2022-12-11T06:25:55.417Z,100890.41
2022-12-11T06:28:23.047Z,100892.16
2022-12-11T06:30:52.308Z,100890.88
2022-12-11T06:33:19.945Z,100884.91
2022-12-11T06:35:47.564Z,100896.44
2022-12-11T06:38:15.250Z,100888.84
2022-12-11T06:40:42.986Z,100894.25
2022-12-11T06:43:10.786Z,100901.25
2022-12-11T06:45:39.006Z,100899.63
2022-12-11T06:48:08.230Z,100898.69
2022-12-11T06:50:35.854Z,100900.88
2022-12-11T06:53:03.494Z,100904.97
2022-12-11T06:55:31.340Z,100904.38
2022-12-11T06:57:59.008Z,100908.13
2022-12-11T07:00:27.195Z,100906.25
2022-12-11T07:02:55.070Z,100914.22
2022-12-11T07:05:24.724Z,100919.00
2022-12-11T07:07:54.409Z,100926.81
2022-12-11T07:10:22.158Z,100923.31
2022-12-11T07:12:50.139Z,100925.06
2022-12-11T07:15:17.884Z,100918.63
2022-12-11T07:17:45.529Z,100912.88
2022-12-11T07:20:13.453Z,100918.38
2022-12-11T07:22:46.474Z,100918.00
2022-12-11T07:25:14.786Z,100908.22
2022-12-11T07:27:42.632Z,100914.97
2022-12-11T07:30:11.654Z,100920.47
2022-12-11T07:32:39.323Z,100920.47
2022-12-11T07:35:07.469Z,100922.94
2022-12-11T07:37:35.141Z,100929.94
2022-12-11T07:40:04.348Z,100924.94
2022-12-11T07:42:32.158Z,100930.31
2022-12-11T07:44:59.823Z,100932.31
2022-12-11T07:47:27.476Z,100926.13
2022-12-11T07:49:55.120Z,100928.00
2022-12-11T07:52:22.755Z,100916.22
2022-12-11T07:54:50.907Z,100922.53
2022-12-11T07:57:20.008Z,100927.06
2022-12-11T07:59:47.948Z,100934.19
2022-12-11T08:02:15.625Z,100937.53
2022-12-11T08:04:43.323Z,100940.34
2022-12-11T08:07:11.013Z,100929.97
2022-12-11T08:09:38.709Z,100937.13
2022-12-11T08:12:06.885Z,100939.19
2022-12-11T08:14:36.078Z,100949.72
2022-12-11T08:17:03.698Z,100941.44
2022-12-11T08:19:31.432Z,100904.53
2022-12-11T08:21:59.064Z,100948.97
2022-12-11T08:24:27.577Z,100952.25
2022-12-11T08:26:55.245Z,100951.81
2022-12-11T08:29:22.884Z,100956.44
2022-12-11T08:31:51.928Z,100953.75
2022-12-11T08:34:19.532Z,100955.41
2022-12-11T08:36:47.252Z,100955.06
2022-12-11T08:39:14.999Z,100951.78
2022-12-11T08:41:42.861Z,100955.06
2022-12-11T08:44:16.549Z,100948.63
2022-12-11T08:46:44.793Z,100959.94
2022-12-11T08:49:13.750Z,100953.53
2022-12-11T08:51:41.216Z,100953.41
2022-12-11T08:54:10.866Z,100955.53
2022-12-11T08:56:38.566Z,100957.63
2022-12-11T08:59:06.260Z,100940.94
2022-12-11T09:01:34.109Z,100938.59
2022-12-11T09:04:01.819Z,100941.31
2022-12-11T09:06:34.027Z,100937.09
2022-12-11T09:09:03.997Z,100932.66
2022-12-11T09:11:34.142Z,100929.38
2022-12-11T09:14:07.158Z,100932.41
2022-12-11T09:16:37.692Z,100924.47
2022-12-11T09:19:05.451Z,100921.66
2022-12-11T09:21:34.986Z,100917.28
2022-12-11T09:24:02.757Z,100928.00
2022-12-11T09:26:31.207Z,100922.41
2022-12-11T09:28:59.662Z,100915.16
2022-12-11T09:31:29.222Z,100932.56
2022-12-11T09:33:58.653Z,100880.56
2022-12-11T09:36:26.979Z,100926.66
2022-12-11T09:38:56.074Z,100932.69
2022-12-11T09:41:40.937Z,100926.28
2022-12-11T09:44:18.928Z,100923.81
2022-12-11T09:46:47.541Z,100921.84
2022-12-11T09:49:24.385Z,100918.56
2022-12-11T09:52:01.353Z,100924.81
2022-12-11T09:54:30.642Z,100931.22
2022-12-11T09:57:06.265Z,100924.75
2022-12-11T09:59:42.469Z,100920.81
2022-12-11T10:02:26.509Z,100921.75
2022-12-11T10:05:07.969Z,100916.84
2022-12-11T10:07:42.886Z,100917.44
2022-12-11T10:10:21.709Z,100920.13
2022-12-11T10:12:52.604Z,100924.00
2022-12-11T10:15:30.714Z,100933.22
2022-12-11T10:18:04.841Z,100919.06
2022-12-11T10:20:36.517Z,100930.06
2022-12-11T10:23:07.290Z,100924.81
2022-12-11T10:25:38.659Z,100922.56
2022-12-11T10:28:13.861Z,100924.81
2022-12-11T10:30:48.932Z,100916.72
2022-12-11T10:33:22.809Z,100916.50
2022-12-11T10:35:53.209Z,100914.03
2022-12-11T10:38:28.489Z,100906.31
2022-12-11T10:40:59.536Z,100918.84
2022-12-11T10:43:35.228Z,100909.16
2022-12-11T10:46:03.395Z,100908.22
2022-12-11T10:48:31.208Z,100914.97
2022-12-11T10:51:03.486Z,100906.44
2022-12-11T10:53:32.487Z,100910.53
2022-12-11T10:56:02.785Z,100901.31
2022-12-11T10:58:34.249Z,100905.88
2022-12-11T11:01:08.678Z,100899.78
2022-12-11T11:03:43.787Z,100893.84
2022-12-11T11:06:17.683Z,100900.69
2022-12-11T11:08:46.969Z,100886.06
2022-12-11T11:11:26.856Z,100887.97
2022-12-11T11:14:07.080Z,100888.09
2022-12-11T11:16:38.300Z,100891.72
2022-12-11T11:19:06.500Z,100880.81
2022-12-11T11:21:35.920Z,100883.69
2022-12-11T11:24:04.560Z,100878.63
2022-12-11T11:27:11.215Z,100875.78
2022-12-11T11:29:30.039Z,100887.88
2022-12-11T11:31:57.927Z,100882.22
2022-12-11T11:34:26.155Z,100879.41
2022-12-11T11:36:58.673Z,100881.84
2022-12-11T11:39:32.179Z,100884.28
2022-12-11T11:42:09.036Z,100869.00
2022-12-11T11:44:43.001Z,100884.81
2022-12-11T11:47:17.005Z,100876.16
2022-12-11T11:49:54.246Z,100858.03
2022-12-11T11:52:26.990Z,100866.44
2022-12-11T11:55:06.485Z,100863.06
2022-12-11T11:57:42.971Z,100858.84
2022-12-11T12:00:20.633Z,100860.72
2022-12-11T12:02:49.117Z,100847.28
2022-12-11T12:05:23.742Z,100856.81
2022-12-11T12:08:02.376Z,100856.22
2022-12-11T12:10:35.917Z,100855.09
2022-12-11T12:13:44.335Z,100861.91
2022-12-11T12:16:02.753Z,100857.44
2022-12-11T12:18:39.607Z,100856.97
2022-12-11T12:21:16.415Z,100861.53
2022-12-11T12:24:06.397Z,100859.31
2022-12-11T12:26:36.796Z,100864.88
2022-12-11T12:29:19.773Z,100862.28
2022-12-11T12:32:00.128Z,100859.59
2022-12-11T12:34:42.350Z,100857.97
2022-12-11T12:37:18.430Z,100858.75
2022-12-11T12:39:56.008Z,100853.53
2022-12-11T12:42:33.689Z,100855.66
2022-12-11T12:45:09.996Z,100859.78
2022-12-11T12:47:38.976Z,100858.78
2022-12-11T12:50:13.591Z,100848.31
2022-12-11T12:52:42.524Z,100837.59
2022-12-11T12:55:22.908Z,100850.47
2022-12-11T12:57:53.556Z,100851.47
2022-12-11T13:00:35.635Z,100830.78
2022-12-11T13:03:13.926Z,100850.03
2022-12-11T13:05:44.234Z,100855.00
2022-12-11T13:08:13.969Z,100847.63
2022-12-11T13:10:43.932Z,100843.72
2022-12-11T13:13:31.522Z,100840.94
2022-12-11T13:16:10.656Z,100847.53
2022-12-11T13:18:40.372Z,100854.34
2022-12-11T13:21:27.515Z,100847.66
2022-12-11T13:23:55.760Z,100853.75
2022-12-11T13:26:31.364Z,100855.28
2022-12-11T13:28:59.805Z,100858.47
2022-12-11T13:31:36.352Z,100860.69
2022-12-11T13:34:19.711Z,100861.63
2022-12-11T13:36:49.914Z,100859.47
2022-12-11T13:39:21.038Z,100865.22
2022-12-11T13:41:53.281Z,100865.69
2022-12-11T13:44:25.632Z,100872.03
2022-12-11T13:46:57.180Z,100866.88
2022-12-11T13:49:27.585Z,100867.19
2022-12-11T13:51:58.404Z,100869.09
2022-12-11T13:54:26.962Z,100867.13
2022-12-11T13:57:01.163Z,100865.09
2022-12-11T13:59:32.812Z,100864.75
2022-12-11T14:02:11.211Z,100861.09
2022-12-11T14:04:39.355Z,100866.84
2022-12-11T14:07:09.927Z,100861.16
2022-12-11T14:09:40.802Z,100868.06
2022-12-11T14:12:14.798Z,100872.03
2022-12-11T14:14:46.566Z,100873.31
2022-12-11T14:17:21.475Z,100859.63
2022-12-11T14:19:49.878Z,100866.78
2022-12-11T14:22:20.314Z,100874.63
2022-12-11T14:24:52.217Z,100871.44
2022-12-11T14:27:20.525Z,100872.72
2022-12-11T14:29:48.921Z,100868.28
2022-12-11T14:32:25.858Z,100874.38
2022-12-11T14:34:54.711Z,100866.66
2022-12-11T14:37:23.903Z,100868.53
2022-12-11T14:39:58.712Z,100872.94
2022-12-11T14:42:30.503Z,100866.00
2022-12-11T14:45:02.235Z,100872.91
2022-12-11T14:47:35.057Z,100878.16
2022-12-11T14:50:06.811Z,100870.84
2022-12-11T14:52:39.159Z,100870.88
2022-12-11T14:55:10.488Z,100874.88
2022-12-11T14:57:40.739Z,100876.63
2022-12-11T15:00:09.839Z,100876.84
2022-12-11T15:02:39.166Z,100860.50
2022-12-11T15:05:15.835Z,100875.34
2022-12-11T15:07:45.690Z,100874.50
2022-12-11T15:10:31.242Z,100873.44
2022-12-11T15:13:00.174Z,100880.09
2022-12-11T15:15:31.088Z,100876.13
2022-12-11T15:18:03.050Z,100882.22
2022-12-11T15:20:31.764Z,100874.13
2022-12-11T15:23:02.627Z,100882.44
2022-12-11T15:25:32.428Z,100880.81
2022-12-11T15:28:01.771Z,100884.78
2022-12-11T15:30:33.692Z,100884.34
2022-12-11T15:33:22.181Z,100886.34
2022-12-11T15:36:00.302Z,100884.22
2022-12-11T15:38:33.600Z,100888.91
2022-12-11T15:41:02.256Z,100889.94
2022-12-11T15:43:33.349Z,100887.50
2022-12-11T15:46:02.582Z,100885.75
2022-12-11T15:48:31.803Z,100899.78
2022-12-11T15:50:59.995Z,100894.38
2022-12-11T15:53:27.661Z,100894.16
2022-12-11T15:55:55.605Z,100897.53
2022-12-11T15:58:25.765Z,100900.69
2022-12-11T16:00:53.493Z,100897.91
2022-12-11T16:03:22.809Z,100897.19
2022-12-11T16:05:54.109Z,100894.13
2022-12-11T16:08:23.968Z,100889.00
2022-12-11T16:10:54.547Z,100901.28
2022-12-11T16:13:23.063Z,100898.38
2022-12-11T16:15:52.248Z,100887.97
2022-12-11T16:18:23.523Z,100895.47
2022-12-11T16:20:53.289Z,100894.28
2022-12-11T16:23:21.389Z,100875.00
2022-12-11T16:25:49.087Z,100903.19
2022-12-11T16:28:20.657Z,100896.50
2022-12-11T16:30:48.614Z,100900.72
2022-12-11T16:33:16.590Z,100897.22
2022-12-11T16:35:44.399Z,100897.78
2022-12-11T16:38:13.547Z,100893.84
2022-12-11T16:40:41.545Z,100890.78
2022-12-11T16:43:09.395Z,100889.50
2022-12-11T16:45:37.105Z,100890.91
2022-12-11T16:48:05.659Z,100889.25
2022-12-11T16:50:33.428Z,100889.38
2022-12-11T16:53:01.236Z,100888.31
2022-12-11T16:55:30.316Z,100894.06
2022-12-11T16:57:58.074Z,100885.63
2022-12-11T17:00:25.880Z,100891.81
2022-12-11T17:02:53.716Z,100891.38
2022-12-11T17:05:22.606Z,100895.59
2022-12-11T17:07:50.784Z,100896.03
2022-12-11T17:10:18.599Z,100897.78
2022-12-11T17:12:47.706Z,100898.84
2022-12-11T17:15:15.334Z,100897.56
2022-12-11T17:17:43.228Z,100901.06
2022-12-11T17:20:11.479Z,100898.84
2022-12-11T17:22:39.225Z,100900.72
2022-12-11T17:25:07.569Z,100900.03
2022-12-11T17:27:35.724Z,100898.88
2022-12-11T17:30:05.529Z,100898.97
2022-12-11T17:32:33.176Z,100900.34
2022-12-11T17:35:00.884Z,100901.06
2022-12-11T17:37:28.556Z,100900.03
2022-12-11T17:39:56.244Z,100900.72
2022-12-11T17:42:23.902Z,100901.66
2022-12-11T17:44:51.576Z,100895.81
2022-12-11T17:47:20.626Z,100901.88
2022-12-11T17:49:48.512Z,100899.91
2022-12-11T17:52:16.199Z,100907.50
2022-12-11T17:54:43.863Z,100890.19
2022-12-11T17:57:11.627Z,100902.34
2022-12-11T17:59:39.350Z,100906.53
2022-12-11T18:02:07.569Z,100908.66
2022-12-11T18:04:38.912Z,100907.50
2022-12-11T18:07:06.929Z,100914.03
2022-12-11T18:09:34.516Z,100910.75
2022-12-11T18:12:02.236Z,100915.34
2022-12-11T18:14:29.950Z,100915.91
2022-12-11T18:16:57.595Z,100924.34
2022-12-11T18:19:26.993Z,100918.13
2022-12-11T18:21:56.291Z,100920.13
2022-12-11T18:24:25.748Z,100918.47
2022-12-11T18:26:53.353Z,100916.00
2022-12-11T18:29:21.020Z,100920.34
2022-12-11T18:31:48.855Z,100920.59
2022-12-11T18:34:16.706Z,100914.63
2022-12-11T18:36:44.537Z,100915.66
2022-12-11T18:39:13.601Z,100917.53
2022-12-11T18:41:41.328Z,100916.72
2022-12-11T18:44:10.136Z,100918.34
2022-12-11T18:46:39.319Z,100920.81
2022-12-11T18:49:07.218Z,100919.19
2022-12-11T18:51:34.890Z,100916.69
2022-12-11T18:54:02.537Z,100919.97
2022-12-11T18:56:31.505Z,100924.06
2022-12-11T18:58:58.947Z,100922.41
2022-12-11T19:01:28.890Z,100927.88
2022-12-11T19:04:02.754Z,100929.84
2022-12-11T19:06:35.275Z,100921.13
2022-12-11T19:09:03.706Z,100919.97
2022-12-11T19:11:34.708Z,100923.06
2022-12-11T19:14:02.611Z,100919.94
2022-12-11T19:16:33.592Z,100924.81
2022-12-11T19:19:02.971Z,100928.22
2022-12-11T19:21:31.335Z,100925.34
2022-12-11T19:23:59.672Z,100910.84
2022-12-11T19:26:27.502Z,100924.41
2022-12-11T19:29:00.052Z,100927.94
2022-12-11T19:31:29.444Z,100928.63
2022-12-11T19:33:57.928Z,100930.50
2022-12-11T19:36:28.289Z,100929.78
2022-12-11T19:39:01.468Z,100926.28
2022-12-11T19:41:31.388Z,100930.59
2022-12-11T19:44:00.986Z,100933.28
2022-12-11T19:46:29.938Z,100935.50
2022-12-11T19:48:58.121Z,100936.84
2022-12-11T19:51:28.486Z,100931.78
2022-12-11T19:53:56.455Z,100935.59
2022-12-11T19:56:24.236Z,100929.63
2022-12-11T19:58:51.872Z,100930.75
2022-12-11T20:01:24.930Z,100936.41
2022-12-11T20:03:53.033Z,100929.84
2022-12-11T20:06:20.856Z,100930.69
2022-12-11T20:08:48.894Z,100933.97
2022-12-11T20:11:18.921Z,100929.44
2022-12-11T20:13:47.357Z,100922.34
2022-12-11T20:16:16.245Z,100924.22
2022-12-11T20:18:45.459Z,100934.72
2022-12-11T20:21:15.369Z,100931.19
2022-12-11T20:23:43.988Z,100935.84
2022-12-11T20:26:13.627Z,100942.59
2022-12-11T20:28:41.760Z,100937.06
2022-12-11T20:31:19.543Z,100938.16
2022-12-11T20:33:49.954Z,100937.06
2022-12-11T20:36:20.057Z,100935.34
2022-12-11T20:38:48.207Z,100936.09
2022-12-11T20:41:18.343Z,100935.50
2022-12-11T20:43:46.436Z,100937.47
2022-12-11T20:46:15.989Z,100937.09
2022-12-11T20:48:45.787Z,100941.25
2022-12-11T20:51:25.462Z,100939.50
2022-12-11T20:53:59.229Z,100935.19
2022-12-11T20:56:30.449Z,100946.25
2022-12-11T20:59:00.944Z,100946.13
2022-12-11T21:01:31.159Z,100953.16
2022-12-11T21:04:00.719Z,100958.28
2022-12-11T21:06:33.577Z,100951.53
2022-12-11T21:09:03.854Z,100955.06
2022-12-11T21:11:31.974Z,100950.16
2022-12-11T21:13:59.791Z,100946.84
2022-12-11T21:16:28.488Z,100942.13
2022-12-11T21:18:56.406Z,100961.63
2022-12-11T21:21:24.595Z,100965.94
2022-12-11T21:23:54.112Z,100953.03
2022-12-11T21:26:22.257Z,100960.78
2022-12-11T21:28:50.193Z,100962.44
2022-12-11T21:31:20.290Z,100951.03
2022-12-11T21:33:48.737Z,100950.56
2022-12-11T21:36:17.103Z,100941.16
2022-12-11T21:38:46.064Z,100946.22
2022-12-11T21:41:16.297Z,100942.88
2022-12-11T21:44:14.618Z,100954.78
2022-12-11T21:46:32.977Z,100942.94
2022-12-11T21:49:01.027Z,100944.84
2022-12-11T21:51:35.936Z,100955.44
2022-12-11T21:54:06.910Z,100946.38
2022-12-11T21:56:35.960Z,100952.63
2022-12-11T21:59:03.826Z,100952.59
2022-12-11T22:01:35.026Z,100953.16
2022-12-11T22:04:04.782Z,100952.13
2022-12-11T22:06:32.856Z,100952.28
2022-12-11T22:09:01.015Z,100959.59
2022-12-11T22:11:31.078Z,100956.69
2022-12-11T22:14:00.701Z,100961.28
2022-12-11T22:16:28.405Z,100969.06
2022-12-11T22:18:56.487Z,100974.56
2022-12-11T22:21:24.485Z,100974.78
2022-12-11T22:23:52.508Z,100975.59
2022-12-11T22:26:23.217Z,100974.19
2022-12-11T22:28:52.275Z,100968.44
2022-12-11T22:31:24.048Z,100971.00
2022-12-11T22:33:53.716Z,100961.75
2022-12-11T22:36:22.214Z,100972.00
2022-12-11T22:38:50.400Z,100964.91
2022-12-11T22:41:24.205Z,100971.63
2022-12-11T22:43:52.234Z,100973.28
2022-12-11T22:46:23.820Z,100975.38
2022-12-11T22:48:52.298Z,100969.75
2022-12-11T22:51:20.654Z,100962.88
2022-12-11T22:53:48.659Z,100979.75
2022-12-11T22:56:16.751Z,100984.19
2022-12-11T22:58:44.564Z,100983.91
2022-12-11T23:01:14.523Z,100985.81
2022-12-11T23:03:43.954Z,100982.47
2022-12-11T23:06:14.203Z,100968.91
2022-12-11T23:08:43.295Z,100988.00
2022-12-11T23:11:13.592Z,100984.56
2022-12-11T23:13:41.731Z,100981.34
2022-12-11T23:16:10.111Z,100975.22
2022-12-11T23:18:38.347Z,100988.13
2022-12-11T23:21:08.068Z,100980.16
2022-12-11T23:23:35.945Z,100979.16
2022-12-11T23:26:03.833Z,100976.59
2022-12-11T23:28:31.585Z,100978.03
2022-12-11T23:30:59.748Z,100984.72
2022-12-11T23:33:27.564Z,100983.75
2022-12-11T23:35:55.592Z,100977.47
2022-12-11T23:38:24.650Z,100993.75
2022-12-11T23:40:52.775Z,100989.00
2022-12-11T23:43:20.891Z,100982.66
2022-12-11T23:45:49.046Z,100980.41
2022-12-11T23:48:16.722Z,100985.28
2022-12-11T23:50:45.173Z,100984.38
2022-12-11T23:53:13.495Z,100983.97
2022-12-11T23:55:45.519Z,100993.19
2022-12-11T23:58:13.626Z,100984.56
